Time;durP1;ratioP1;P1;durP2;ratioP2;P2;SDS_P1;SDS_P2;PMS_P1;PMS_P2;Temp;Humidity;BMP_temperature;BMP_pressure;BME280_temperature;BME280_humidity;BME280_pressure;Samples;Min_cycle;Max_cycle;Signal;HPM_P1;HPM_P2
2022/01/10 00:00:57;;;;;;;0.65;0.30;;;20.60;46.10;;;;;;4950805;28;20047;-84
2022/01/10 00:03:39;;;;;;;2.45;0.45;;;21.00;46.70;;;;;;4951815;28;20498;-84
2022/01/10 00:06:19;;;;;;;1.60;0.30;;;21.20;46.80;;;;;;4951440;28;20043;-84
2022/01/10 00:08:45;;;;;;;1.08;0.30;;;20.50;46.10;;;;;;4951180;28;20109;-84
2022/01/10 00:11:23;;;;;;;0.95;0.40;;;22.00;46.90;;;;;;4951286;29;20515;-84
2022/01/10 00:13:51;;;;;;;1.75;0.40;;;19.90;45.80;;;;;;4955784;28;20495;-84
2022/01/10 00:16:19;;;;;;;3.88;0.47;;;21.60;46.40;;;;;;4948717;28;20062;-84
2022/01/10 00:18:54;;;;;;;1.77;0.40;;;19.00;45.30;;;;;;4954667;28;20051;-83
2022/01/10 00:21:20;;;;;;;1.52;0.50;;;21.10;46.70;;;;;;4951164;29;20487;-84
2022/01/10 00:24:00;;;;;;;1.23;0.40;;;19.40;45.30;;;;;;4927812;28;20055;-83
2022/01/10 00:26:26;;;;;;;2.13;0.47;;;22.20;47.70;;;;;;4951184;28;20646;-84
2022/01/10 00:29:04;;;;;;;1.05;0.30;;;20.60;46.80;;;;;;4949121;28;20138;-83
2022/01/10 00:31:57;;;;;;;0.98;0.30;;;21.40;47.00;;;;;;4950759;28;20051;-84
2022/01/10 00:34:39;;;;;;;2.13;0.40;;;21.00;46.10;;;;;;4951024;29;20042;-83
2022/01/10 00:37:08;;;;;;;1.80;0.40;;;22.50;47.40;;;;;;4950295;28;20067;-84
2022/01/10 00:39:33;;;;;;;0.88;0.30;;;19.40;45.80;;;;;;4950812;29;20051;-84
2022/01/10 00:42:13;;;;;;;2.47;0.55;;;20.50;45.90;;;;;;4950604;28;20051;-84
2022/01/10 00:44:44;;;;;;;0.50;0.30;;;20.50;46.70;;;;;;4950119;28;20047;-84
2022/01/10 00:47:17;;;;;;;1.98;0.40;;;20.50;46.00;;;;;;4951177;29;20062;-84
2022/01/10 00:50:00;;;;;;;1.40;0.50;;;20.30;46.00;;;;;;4950162;29;20051;-84
2022/01/10 00:52:44;;;;;;;1.23;0.30;;;19.90;46.10;;;;;;4950953;29;20047;-84
2022/01/10 00:58:09;;;;;;;1.40;0.30;;;20.90;46.60;;;;;;4950040;29;20484;-84
2022/01/10 01:00:34;;;;;;;2.67;0.45;;;20.90;46.60;;;;;;4950217;28;20049;-84
2022/01/10 01:03:09;;;;;;;1.67;0.50;;;22.00;46.80;;;;;;4950383;28;20142;-83
2022/01/10 01:05:39;;;;;;;2.25;0.40;;;20.90;47.20;;;;;;4949648;28;20047;-84
2022/01/10 01:08:07;;;;;;;2.13;0.40;;;20.40;46.00;;;;;;4950532;28;20125;-84
2022/01/10 01:13:40;;;;;;;2.53;0.40;;;20.40;45.90;;;;;;4950005;28;20055;-83
2022/01/10 01:24:27;;;;;;;2.45;0.50;;;20.80;46.10;;;;;;4950304;28;20512;-83
2022/01/10 01:26:53;;;;;;;2.90;0.50;;;20.80;46.20;;;;;;4949163;28;20089;-83
2022/01/10 01:29:21;;;;;;;1.60;0.32;;;20.80;46.10;;;;;;4950007;28;20065;-83
2022/01/10 01:31:47;;;;;;;1.95;0.40;;;20.80;46.10;;;;;;4949076;28;20101;-83
2022/01/10 01:34:18;;;;;;;1.60;0.40;;;20.80;46.20;;;;;;4735222;28;10000832;-83
2022/01/10 01:36:50;;;;;;;2.72;0.47;;;20.80;46.20;;;;;;680603;28;10001982;-82
2022/01/10 01:39:20;;;;;;;3.03;0.60;;;20.80;46.20;;;;;;4949308;29;20533;-83
2022/01/10 01:41:46;;;;;;;2.58;0.40;;;20.80;46.20;;;;;;4949759;29;20058;-83
2022/01/10 01:44:12;;;;;;;1.13;0.35;;;22.50;47.10;;;;;;4949713;28;20082;-83
2022/01/10 01:46:38;;;;;;;2.35;0.45;;;21.90;46.80;;;;;;4949274;28;20166;-83
2022/01/10 01:49:04;;;;;;;1.67;0.43;;;20.80;46.20;;;;;;4950151;28;20051;-83
2022/01/10 01:51:33;;;;;;;1.73;0.40;;;22.20;46.90;;;;;;4949969;28;20778;-83
2022/01/10 01:53:59;;;;;;;2.42;0.50;;;20.80;46.20;;;;;;4949626;29;20042;-83
2022/01/10 01:56:24;;;;;;;1.95;0.50;;;20.70;46.10;;;;;;4950062;29;20055;-83
2022/01/10 01:58:54;;;;;;;1.45;0.43;;;22.20;46.90;;;;;;4949794;28;20047;-83
2022/01/10 02:01:54;;;;;;;1.67;0.50;;;21.10;46.40;;;;;;4953836;28;20059;-83
2022/01/10 02:04:19;;;;;;;1.65;0.52;;;20.90;46.30;;;;;;4933664;29;20439;-83
2022/01/10 02:06:45;;;;;;;1.40;0.30;;;21.50;46.90;;;;;;4933844;29;20047;-83
2022/01/10 02:09:14;;;;;;;1.92;0.40;;;19.50;45.70;;;;;;4933323;29;20067;-83
2022/01/10 02:11:40;;;;;;;1.65;0.40;;;20.60;46.40;;;;;;4893063;29;20059;-83
2022/01/10 02:14:06;;;;;;;1.35;0.40;;;22.40;47.10;;;;;;4949161;29;20058;-83
2022/01/10 02:16:45;;;;;;;1.52;0.68;;;20.70;46.30;;;;;;4949987;28;20055;-83
2022/01/10 02:19:11;;;;;;;1.15;0.40;;;20.70;46.20;;;;;;4949546;29;20047;-83
2022/01/10 02:21:37;;;;;;;1.15;0.40;;;20.70;46.20;;;;;;4948770;28;20055;-83
2022/01/10 02:24:04;;;;;;;1.50;0.40;;;20.70;46.20;;;;;;4949610;28;20470;-83
2022/01/10 02:26:30;;;;;;;2.15;0.45;;;20.70;46.20;;;;;;4933586;29;20403;-83
2022/01/10 02:28:55;;;;;;;2.33;0.60;;;22.10;47.00;;;;;;4948772;28;20047;-83
2022/01/10 02:31:21;;;;;;;1.92;0.50;;;22.00;46.90;;;;;;4956777;28;20060;-83
2022/01/10 02:33:50;;;;;;;1.48;0.47;;;20.70;46.30;;;;;;4949653;29;20740;-83
2022/01/10 02:36:24;;;;;;;1.83;0.32;;;21.30;46.50;;;;;;4950113;28;20039;-83
2022/01/10 02:38:54;;;;;;;2.10;0.63;;;20.70;46.30;;;;;;4949623;28;20058;-83
2022/01/10 02:41:22;;;;;;;2.35;0.50;;;20.70;46.30;;;;;;4953115;29;20059;-83
2022/01/10 02:43:47;;;;;;;0.90;0.60;;;20.70;46.30;;;;;;4952801;29;20057;-82
2022/01/10 02:46:13;;;;;;;1.30;0.40;;;20.70;46.30;;;;;;4952991;29;20048;-83
2022/01/10 02:48:39;;;;;;;1.60;0.40;;;20.60;46.30;;;;;;4953248;29;20150;-83
2022/01/10 02:51:05;;;;;;;1.20;0.30;;;20.70;46.30;;;;;;4952300;28;20503;-83
2022/01/10 02:53:31;;;;;;;1.90;0.50;;;20.70;46.30;;;;;;4937067;29;20051;-83
2022/01/10 02:55:56;;;;;;;2.35;0.40;;;20.70;46.30;;;;;;4952851;28;20472;-83
2022/01/10 02:58:22;;;;;;;1.30;0.32;;;20.70;46.30;;;;;;4952169;28;20102;-83
2022/01/10 03:00:47;;;;;;;1.20;0.40;;;20.60;46.20;;;;;;4952709;28;20134;-83
2022/01/10 03:03:13;;;;;;;1.92;0.50;;;21.90;47.00;;;;;;4952148;28;20051;-83
2022/01/10 03:05:38;;;;;;;1.08;0.40;;;20.60;46.30;;;;;;4951367;28;20047;-83
2022/01/10 03:08:04;;;;;;;2.70;0.63;;;20.70;46.30;;;;;;4936783;29;20043;-83
2022/01/10 03:10:39;;;;;;;1.08;0.38;;;20.60;46.30;;;;;;4944688;28;20485;-83
2022/01/10 03:13:05;;;;;;;0.50;0.20;;;20.60;46.30;;;;;;4952196;29;20054;-83
2022/01/10 03:15:30;;;;;;;1.60;0.50;;;22.30;47.30;;;;;;4952476;28;20040;-83
2022/01/10 03:17:56;;;;;;;1.67;0.40;;;20.70;46.40;;;;;;4951563;29;20134;-83
2022/01/10 03:20:23;;;;;;;2.08;0.40;;;20.60;46.30;;;;;;4952254;28;20200;-83
2022/01/10 03:22:49;;;;;;;1.13;0.47;;;20.60;46.30;;;;;;4952476;28;19926;-82
2022/01/10 03:25:15;;;;;;;1.30;0.35;;;20.60;46.30;;;;;;4951820;29;20051;-83
2022/01/10 03:27:40;;;;;;;1.33;0.40;;;20.60;46.30;;;;;;4952791;29;20058;-83
2022/01/10 03:30:06;;;;;;;1.52;0.50;;;20.70;46.40;;;;;;4951938;28;20054;-82
2022/01/10 03:32:32;;;;;;;1.10;0.40;;;20.60;46.30;;;;;;4951203;28;20043;-83
2022/01/10 03:34:57;;;;;;;1.35;0.40;;;20.60;46.40;;;;;;4952348;29;20062;-83
2022/01/10 03:37:24;;;;;;;2.55;0.57;;;20.60;46.30;;;;;;4951907;28;20063;-83
2022/01/10 03:39:50;;;;;;;1.05;0.38;;;20.70;46.50;;;;;;4951120;29;20055;-82
2022/01/10 03:42:15;;;;;;;1.73;0.40;;;21.70;46.90;;;;;;4951917;29;20154;-82
2022/01/10 03:44:41;;;;;;;1.75;0.60;;;20.70;46.40;;;;;;4951764;28;20055;-82
2022/01/10 03:47:06;;;;;;;3.38;0.40;;;20.60;46.30;;;;;;4951187;28;20067;-82
2022/01/10 03:49:32;;;;;;;1.98;0.50;;;22.20;47.20;;;;;;4951629;28;20043;-82
2022/01/10 03:51:57;;;;;;;2.53;0.50;;;20.60;46.30;;;;;;4944801;28;20098;-82
2022/01/10 03:54:23;;;;;;;3.00;0.50;;;20.70;46.40;;;;;;4951123;29;20047;-83
2022/01/10 03:56:49;;;;;;;1.90;0.47;;;20.60;46.30;;;;;;4951805;29;20039;-82
2022/01/10 03:59:14;;;;;;;3.42;0.63;;;20.60;46.30;;;;;;4951739;29;20046;-82
2022/01/10 04:01:40;;;;;;;2.28;0.40;;;20.60;46.40;;;;;;4951081;29;20054;-82
2022/01/10 04:04:06;;;;;;;1.55;0.45;;;20.60;46.30;;;;;;4951683;28;20048;-82
2022/01/10 04:06:32;;;;;;;1.35;0.30;;;20.60;46.30;;;;;;4951002;29;20386;-82
2022/01/10 04:08:57;;;;;;;1.50;0.40;;;21.60;46.80;;;;;;4956728;28;20483;-82
2022/01/10 04:11:23;;;;;;;2.75;0.50;;;20.60;46.30;;;;;;4951773;28;20051;-82
2022/01/10 04:13:49;;;;;;;1.33;0.50;;;20.60;46.30;;;;;;4950636;28;20102;-82
2022/01/10 04:16:14;;;;;;;3.10;0.60;;;20.60;46.30;;;;;;4951287;28;20051;-83
2022/01/10 04:18:40;;;;;;;1.15;0.40;;;20.60;46.30;;;;;;4951203;28;20150;-82
2022/01/10 04:21:05;;;;;;;2.13;0.50;;;20.60;46.30;;;;;;4941419;28;20106;-83
2022/01/10 04:23:31;;;;;;;1.80;0.50;;;20.60;46.30;;;;;;4935627;29;20059;-82
2022/01/10 04:25:56;;;;;;;2.45;0.50;;;20.60;46.30;;;;;;4951611;29;20047;-82
2022/01/10 04:28:22;;;;;;;1.30;0.47;;;20.60;46.30;;;;;;4950526;28;20054;-82
2022/01/10 04:30:48;;;;;;;1.92;0.60;;;20.60;46.30;;;;;;4951019;29;20054;-83
2022/01/10 04:33:17;;;;;;;2.08;0.70;;;20.60;46.30;;;;;;4951402;29;20057;-83
2022/01/10 04:35:43;;;;;;;1.83;0.40;;;20.60;46.30;;;;;;4950440;28;20059;-82
2022/01/10 04:38:09;;;;;;;1.35;0.60;;;20.60;46.30;;;;;;4950670;29;20055;-83
2022/01/10 04:40:35;;;;;;;0.85;0.30;;;20.60;46.30;;;;;;4950913;29;20051;-83
2022/01/10 04:43:00;;;;;;;1.90;0.40;;;20.60;46.30;;;;;;4950423;28;20043;-82
2022/01/10 04:45:26;;;;;;;1.58;0.50;;;20.60;46.30;;;;;;4950055;28;20043;-83
2022/01/10 04:47:55;;;;;;;1.35;0.30;;;20.60;46.40;;;;;;4934917;29;20096;-82
2022/01/10 04:52:46;;;;;;;1.50;0.50;;;20.50;46.30;;;;;;4950548;29;20051;-83
2022/01/10 04:55:12;;;;;;;1.23;0.30;;;20.50;46.30;;;;;;4950573;29;20082;-82
2022/01/10 04:57:37;;;;;;;1.75;0.40;;;20.60;46.40;;;;;;4950149;28;20043;-82
2022/01/10 05:00:07;;;;;;;0.77;0.32;;;20.50;46.40;;;;;;4950584;29;20051;-82
2022/01/10 05:02:33;;;;;;;2.38;0.47;;;20.60;46.40;;;;;;4933555;29;20044;-83
2022/01/10 05:04:59;;;;;;;1.48;0.43;;;20.60;46.40;;;;;;4946139;28;20059;-82
2022/01/10 05:07:24;;;;;;;2.53;0.50;;;20.60;46.50;;;;;;4961158;23;20082;-82
2022/01/10 05:10:03;;;;;;;1.25;0.43;;;20.60;46.50;;;;;;4949040;28;20074;-82
2022/01/10 05:12:29;;;;;;;1.58;0.40;;;20.60;46.50;;;;;;4950411;29;20171;-82
2022/01/10 05:14:55;;;;;;;2.92;0.60;;;19.50;46.00;;;;;;4950746;29;20533;-82
2022/01/10 05:17:22;;;;;;;1.95;0.50;;;20.60;46.50;;;;;;4950028;28;20074;-82
2022/01/10 05:19:48;;;;;;;0.93;0.30;;;20.60;46.60;;;;;;4950855;28;20089;-82
2022/01/10 05:22:14;;;;;;;1.25;0.52;;;20.60;46.50;;;;;;4950490;28;20075;-82
2022/01/10 05:24:39;;;;;;;1.73;0.40;;;20.70;46.60;;;;;;4933751;29;20051;-82
2022/01/10 05:27:05;;;;;;;2.05;0.65;;;20.70;46.50;;;;;;4950177;29;20079;-83
2022/01/10 05:29:30;;;;;;;2.72;0.65;;;20.70;46.50;;;;;;4915595;28;20051;-83
2022/01/10 05:31:56;;;;;;;1.73;0.40;;;20.70;46.50;;;;;;4949626;29;20385;-82
2022/01/10 05:34:22;;;;;;;1.50;0.40;;;20.70;46.50;;;;;;4950328;28;20057;-82
2022/01/10 05:36:47;;;;;;;1.08;0.40;;;20.70;46.50;;;;;;4950342;29;20043;-81
2022/01/10 05:39:13;;;;;;;1.40;0.47;;;20.80;46.50;;;;;;4949529;28;20506;-82
2022/01/10 05:41:38;;;;;;;1.25;0.50;;;20.80;46.50;;;;;;4950217;28;20105;-82
2022/01/10 05:44:04;;;;;;;1.75;0.43;;;20.80;47.30;;;;;;4950072;29;20143;-82
2022/01/10 05:46:30;;;;;;;1.10;0.50;;;20.80;46.50;;;;;;4949215;28;20043;-82
2022/01/10 05:49:00;;;;;;;1.10;0.38;;;20.80;46.50;;;;;;4934429;29;20043;-82
2022/01/10 05:51:32;;;;;;;1.08;0.40;;;20.90;46.50;;;;;;4934798;29;20050;-82
2022/01/10 05:54:05;;;;;;;1.02;0.30;;;20.80;46.50;;;;;;4934349;29;20509;-81
2022/01/10 05:56:40;;;;;;;1.58;0.50;;;20.90;46.50;;;;;;4950112;28;20059;-82
2022/01/10 05:59:05;;;;;;;1.60;0.40;;;20.90;46.50;;;;;;4949576;28;20045;-82
2022/01/10 06:01:31;;;;;;;1.25;0.50;;;21.30;46.90;;;;;;4950293;29;20047;-82
2022/01/10 06:04:08;;;;;;;1.20;0.40;;;20.90;46.60;;;;;;4924098;28;20095;-82
2022/01/10 06:06:34;;;;;;;1.50;0.50;;;21.00;46.60;;;;;;4911263;29;20083;-82
2022/01/10 06:09:00;;;;;;;1.33;0.50;;;22.10;47.30;;;;;;4927397;29;20144;-82
2022/01/10 06:11:25;;;;;;;1.45;0.43;;;21.00;46.60;;;;;;4911797;29;20056;-82
2022/01/10 06:13:51;;;;;;;0.82;0.30;;;21.00;46.60;;;;;;4913421;29;20055;-82
2022/01/10 06:16:16;;;;;;;2.10;0.50;;;21.90;47.00;;;;;;4915564;29;20523;-82
2022/01/10 06:18:42;;;;;;;1.55;0.40;;;21.00;46.40;;;;;;4915538;29;20044;-82
2022/01/10 06:21:07;;;;;;;2.10;0.40;;;21.10;46.50;;;;;;4930591;29;20055;-83
2022/01/10 06:23:33;;;;;;;1.33;0.50;;;21.20;46.50;;;;;;4746483;29;5002252;-82
2022/01/10 06:25:58;;;;;;;1.00;0.40;;;21.10;46.50;;;;;;4915171;29;20054;-82
2022/01/10 06:28:24;;;;;;;1.30;0.40;;;21.10;46.40;;;;;;4914703;29;20040;-82
2022/01/10 06:30:50;;;;;;;1.85;0.65;;;21.10;46.40;;;;;;4928871;29;20044;-82
2022/01/10 06:33:15;;;;;;;0.85;0.30;;;21.10;46.30;;;;;;4914346;29;20052;-82
2022/01/10 06:35:41;;;;;;;1.10;0.40;;;21.10;46.30;;;;;;4914747;29;20078;-82
2022/01/10 06:38:06;;;;;;;2.20;0.52;;;21.20;46.30;;;;;;4748322;29;5001896;-83
2022/01/10 06:40:32;;;;;;;2.90;0.60;;;21.10;46.30;;;;;;4889446;29;20056;-82
2022/01/10 06:42:58;;;;;;;1.73;0.50;;;21.20;46.30;;;;;;4914442;29;20052;-82
2022/01/10 06:45:26;;;;;;;0.90;0.28;;;21.20;46.40;;;;;;4914913;29;20079;-83
2022/01/10 06:47:52;;;;;;;1.23;0.45;;;22.20;47.00;;;;;;4913805;29;20701;-81
2022/01/10 06:50:17;;;;;;;1.38;0.60;;;21.10;46.20;;;;;;4913409;29;20078;-82
2022/01/10 06:52:43;;;;;;;0.82;0.38;;;21.20;46.30;;;;;;4908168;29;20505;-82
2022/01/10 06:55:09;;;;;;;0.80;0.40;;;21.20;46.30;;;;;;4905736;29;20501;-82
2022/01/10 06:57:34;;;;;;;1.58;0.35;;;21.20;46.20;;;;;;4914128;29;20052;-82
2022/01/10 07:00:02;;;;;;;1.52;0.40;;;21.20;46.20;;;;;;4914975;29;20044;-82
2022/01/10 07:02:28;;;;;;;1.23;0.35;;;22.40;46.80;;;;;;4914109;29;20044;-80
2022/01/10 07:04:53;;;;;;;1.60;0.40;;;21.20;46.20;;;;;;4914559;29;20585;-82
2022/01/10 07:07:19;;;;;;;1.25;0.43;;;21.20;46.20;;;;;;4914406;29;20052;-82
2022/01/10 07:09:44;;;;;;;1.33;0.40;;;21.20;46.20;;;;;;4914127;29;20151;-81
2022/01/10 07:12:10;;;;;;;1.35;0.60;;;21.20;46.20;;;;;;4914318;29;20095;-80
2022/01/10 07:14:36;;;;;;;1.20;0.40;;;21.20;46.10;;;;;;4914688;29;20046;-82
2022/01/10 07:17:01;;;;;;;0.98;0.38;;;21.20;46.00;;;;;;4913739;29;20052;-81
2022/01/10 07:19:27;;;;;;;1.05;0.47;;;21.20;46.10;;;;;;4925812;28;20097;-80
2022/01/10 07:21:53;;;;;;;4.93;0.60;;;21.20;46.00;;;;;;4969298;28;20727;-81
2022/01/10 07:24:18;;;;;;;3.28;0.50;;;21.20;46.00;;;;;;4951444;28;20063;-81
2022/01/10 07:26:44;;;;;;;1.33;0.60;;;21.20;46.00;;;;;;4968128;28;20546;-82
2022/01/10 07:29:11;;;;;;;0.73;0.40;;;21.10;45.90;;;;;;4965666;28;20451;-81
2022/01/10 07:31:40;;;;;;;2.17;0.70;;;21.80;46.20;;;;;;4945795;29;20107;-81
2022/01/10 07:34:06;;;;;;;2.85;0.80;;;21.10;45.90;;;;;;4962125;28;20047;-82
2022/01/10 07:36:31;;;;;;;2.47;0.77;;;21.20;46.00;;;;;;4964977;28;20412;-82
2022/01/10 07:38:57;;;;;;;1.70;0.70;;;21.10;45.90;;;;;;4945490;29;20047;-82
2022/01/10 07:41:25;;;;;;;5.68;1.70;;;21.30;46.00;;;;;;4951429;29;20082;-81
2022/01/10 07:43:51;;;;;;;1.52;0.40;;;21.70;46.50;;;;;;4951929;28;20055;-82
2022/01/10 07:46:17;;;;;;;2.03;0.70;;;21.10;45.80;;;;;;4951495;29;20047;-81
2022/01/10 07:48:44;;;;;;;2.35;0.73;;;21.10;45.80;;;;;;4967863;28;20043;-81
2022/01/10 07:51:10;;;;;;;4.18;0.65;;;21.00;45.80;;;;;;4951885;29;20091;-82
2022/01/10 07:53:37;;;;;;;3.90;0.70;;;21.60;46.10;;;;;;4967712;28;20097;-82
2022/01/10 07:56:05;;;;;;;2.97;0.70;;;21.00;45.80;;;;;;4952099;29;20047;-82
2022/01/10 07:58:31;;;;;;;3.40;0.80;;;21.00;46.10;;;;;;4967777;28;20058;-82
2022/01/10 08:00:56;;;;;;;2.25;0.75;;;21.90;46.40;;;;;;4950834;28;20051;-83
2022/01/10 08:03:22;;;;;;;2.85;0.90;;;21.00;45.90;;;;;;4950080;28;20093;-82
2022/01/10 08:05:48;;;;;;;3.47;0.93;;;21.00;46.60;;;;;;4950899;28;20055;-82
2022/01/10 08:08:13;;;;;;;3.17;0.80;;;21.00;45.90;;;;;;4951457;29;20063;-82
2022/01/10 08:10:39;;;;;;;3.15;0.90;;;21.20;46.00;;;;;;4967996;28;20044;-81
2022/01/10 08:13:31;;;;;;;3.63;1.05;;;22.70;46.90;;;;;;4949386;28;20504;-82
2022/01/10 08:15:56;;;;;;;5.43;1.17;;;20.90;45.80;;;;;;4946275;29;20051;-84
2022/01/10 08:18:22;;;;;;;3.92;0.90;;;21.70;46.50;;;;;;4948943;29;20118;-82
2022/01/10 08:20:47;;;;;;;4.95;1.40;;;22.60;46.90;;;;;;4950671;28;20051;-82
2022/01/10 08:23:13;;;;;;;5.45;1.30;;;22.40;46.50;;;;;;4934167;29;20083;-83
2022/01/10 08:25:39;;;;;;;5.50;1.50;;;22.40;46.60;;;;;;4945699;28;20451;-82
2022/01/10 08:28:04;;;;;;;4.78;1.27;;;21.00;46.60;;;;;;4945631;29;20051;-82
2022/01/10 08:30:30;;;;;;;6.22;1.27;;;20.90;45.80;;;;;;4942318;28;20071;-82
2022/01/10 08:32:56;;;;;;;3.65;1.10;;;20.90;45.80;;;;;;4943065;28;20416;-82
2022/01/10 08:35:21;;;;;;;4.47;1.25;;;20.90;45.80;;;;;;4943628;29;20070;-82
2022/01/10 08:37:47;;;;;;;4.30;1.38;;;21.20;46.00;;;;;;4942395;29;20043;-82
2022/01/10 08:40:13;;;;;;;5.03;1.30;;;21.70;46.20;;;;;;4937453;29;20130;-82
2022/01/10 08:42:39;;;;;;;5.78;1.35;;;20.90;45.80;;;;;;4952124;28;20070;-83
2022/01/10 08:45:05;;;;;;;4.10;1.05;;;22.20;46.50;;;;;;4947769;29;20051;-83
2022/01/10 08:47:30;;;;;;;3.83;1.10;;;20.90;45.80;;;;;;4931734;29;20048;-81
2022/01/10 08:49:56;;;;;;;5.10;1.63;;;20.90;45.90;;;;;;4946400;29;20086;-84
2022/01/10 08:52:22;;;;;;;4.57;1.27;;;20.90;45.90;;;;;;4949234;28;20059;-82
2022/01/10 08:54:49;;;;;;;3.85;1.10;;;20.90;45.90;;;;;;4939149;29;20035;-82
2022/01/10 08:57:15;;;;;;;3.95;1.35;;;20.90;45.90;;;;;;4940926;29;20058;-82
2022/01/10 08:59:40;;;;;;;4.95;1.20;;;20.90;45.90;;;;;;4957686;28;20069;-82
2022/01/10 09:02:06;;;;;;;4.10;1.00;;;20.90;45.90;;;;;;4956435;28;20048;-81
2022/01/10 09:04:38;;;;;;;7.20;1.50;;;20.90;45.90;;;;;;4944238;29;20129;-82
2022/01/10 09:07:05;;;;;;;4.85;1.48;;;20.90;45.90;;;;;;4942668;28;20143;-82
2022/01/10 09:09:31;;;;;;;3.15;1.00;;;21.60;46.30;;;;;;4942014;29;20076;-82
2022/01/10 09:11:57;;;;;;;3.25;1.10;;;20.90;45.90;;;;;;4957078;28;20402;-82
2022/01/10 09:14:22;;;;;;;4.95;1.30;;;20.90;45.90;;;;;;4958773;28;20055;-82
2022/01/10 09:16:48;;;;;;;3.60;1.27;;;20.90;45.90;;;;;;4948450;28;20050;-82
2022/01/10 09:19:13;;;;;;;4.20;1.40;;;20.90;46.00;;;;;;4949899;28;20051;-82
2022/01/10 09:21:39;;;;;;;3.40;1.00;;;20.90;46.00;;;;;;4949100;28;20043;-82
2022/01/10 09:24:05;;;;;;;3.63;1.10;;;20.90;46.00;;;;;;4890208;28;20054;-82
2022/01/10 09:26:31;;;;;;;3.42;1.30;;;20.90;46.00;;;;;;4926486;29;20109;-82
2022/01/10 09:28:56;;;;;;;3.17;1.02;;;21.00;46.10;;;;;;4950248;29;20167;-82
2022/01/10 09:31:22;;;;;;;4.03;1.02;;;21.00;46.00;;;;;;4949488;29;20039;-82
2022/01/10 09:33:53;;;;;;;3.30;1.35;;;21.00;46.00;;;;;;4933677;29;20157;-82
2022/01/10 09:36:18;;;;;;;3.90;1.05;;;21.40;46.30;;;;;;4950370;28;20679;-82
2022/01/10 09:38:44;;;;;;;4.05;1.27;;;21.00;46.00;;;;;;4938568;28;20071;-81
2022/01/10 09:41:10;;;;;;;3.63;1.20;;;21.10;46.10;;;;;;4942708;28;20050;-83
2022/01/10 09:43:39;;;;;;;3.53;1.23;;;21.10;46.10;;;;;;4605156;28;10000684;-81
2022/01/10 09:46:05;;;;;;;4.43;1.08;;;21.10;46.10;;;;;;4921003;29;20054;-84
2022/01/10 09:48:30;;;;;;;4.35;1.17;;;21.10;46.00;;;;;;4914677;29;20488;-82
2022/01/10 09:50:56;;;;;;;4.90;1.63;;;21.10;46.00;;;;;;4937385;28;20043;-84
2022/01/10 09:53:21;;;;;;;3.75;1.20;;;21.10;46.00;;;;;;4944650;29;20047;-83
2022/01/10 09:55:48;;;;;;;7.40;1.10;;;22.10;46.50;;;;;;4948176;29;20050;-82
2022/01/10 09:58:14;;;;;;;3.42;1.13;;;21.20;46.00;;;;;;4932872;29;20054;-81
2022/01/10 10:00:39;;;;;;;3.63;1.00;;;21.20;46.00;;;;;;4948875;28;20047;-82
2022/01/10 10:03:06;;;;;;;9.40;1.20;;;21.30;46.10;;;;;;4948479;29;20167;-82
2022/01/10 10:05:34;;;;;;;5.68;1.20;;;21.30;46.10;;;;;;4936911;29;20688;-82
2022/01/10 10:08:00;;;;;;;3.25;0.80;;;21.30;46.10;;;;;;4947328;29;20085;-83
2022/01/10 10:10:27;;;;;;;5.15;0.95;;;22.10;46.50;;;;;;4946265;28;20125;-83
2022/01/10 10:12:52;;;;;;;3.10;1.08;;;22.00;46.50;;;;;;4943978;29;20050;-83
2022/01/10 10:15:22;;;;;;;3.45;1.10;;;21.50;46.20;;;;;;4943188;29;20047;-83
2022/01/10 10:18:08;;;;;;;5.70;1.30;;;21.50;46.20;;;;;;4940631;28;20579;-83
2022/01/10 10:20:34;;;;;;;4.57;0.93;;;21.60;46.30;;;;;;4947338;28;20055;-86
2022/01/10 10:23:03;;;;;;;5.38;1.30;;;21.60;46.20;;;;;;4952108;28;20050;-84
2022/01/10 10:25:35;;;;;;;3.47;1.10;;;22.00;46.70;;;;;;4966844;28;20543;-84
2022/01/10 10:28:09;;;;;;;2.50;1.02;;;21.70;46.30;;;;;;4940738;29;20043;-84
2022/01/10 10:31:44;;;;;;;3.70;1.02;;;22.50;46.60;;;;;;4956593;28;20117;-84
2022/01/10 10:34:09;;;;;;;3.20;0.95;;;21.70;46.20;;;;;;4914846;29;20056;-83
2022/01/10 10:36:36;;;;;;;5.55;1.00;;;21.80;46.20;;;;;;4893154;29;20556;-82
2022/01/10 10:39:07;;;;;;;3.90;1.00;;;22.90;46.80;;;;;;4894079;29;20370;-82
2022/01/10 10:41:35;;;;;;;4.55;1.52;;;21.90;46.20;;;;;;4893514;29;20051;-81
2022/01/10 10:44:01;;;;;;;4.72;1.42;;;21.90;46.00;;;;;;4911705;29;20051;-81
2022/01/10 10:46:27;;;;;;;4.18;1.10;;;22.00;45.70;;;;;;4930376;29;20044;-81
2022/01/10 10:49:04;;;;;;;3.67;1.23;;;22.00;45.50;;;;;;4929691;29;20062;-82
2022/01/10 10:51:31;;;;;;;4.47;1.58;;;22.00;45.30;;;;;;4940221;29;20043;-81
2022/01/10 10:54:07;;;;;;;3.78;1.30;;;22.00;45.10;;;;;;4963447;28;20047;-82
2022/01/10 10:56:34;;;;;;;3.55;1.30;;;22.00;45.00;;;;;;4939532;29;20043;-82
2022/01/10 10:59:12;;;;;;;5.65;1.73;;;22.10;45.00;;;;;;4940798;28;20047;-82
2022/01/10 11:01:39;;;;;;;3.80;1.45;;;23.10;45.50;;;;;;4942938;29;20102;-82
2022/01/10 11:04:05;;;;;;;3.65;1.45;;;21.80;44.60;;;;;;4958954;28;20047;-82
2022/01/10 11:06:31;;;;;;;6.15;1.33;;;22.10;44.80;;;;;;4944535;28;20061;-81
2022/01/10 11:08:58;;;;;;;4.22;1.40;;;22.10;44.70;;;;;;4959359;28;20052;-83
2022/01/10 11:11:23;;;;;;;8.10;2.25;;;22.10;44.70;;;;;;4945659;28;20062;-87
2022/01/10 11:13:50;;;;;;;4.30;1.50;;;22.10;44.00;;;;;;4908920;29;20078;-82
2022/01/10 11:16:16;;;;;;;7.20;1.40;;;22.00;44.00;;;;;;4933738;29;20043;-82
2022/01/10 11:18:41;;;;;;;3.67;1.20;;;21.90;44.40;;;;;;4952071;29;20536;-83
2022/01/10 11:21:07;;;;;;;3.70;1.23;;;21.90;44.70;;;;;;4936604;29;20077;-84
2022/01/10 11:23:38;;;;;;;5.32;1.15;;;22.00;45.00;;;;;;4950849;28;20503;-84
2022/01/10 11:26:05;;;;;;;3.63;1.23;;;22.00;45.00;;;;;;4899942;28;20063;-83
2022/01/10 11:28:31;;;;;;;4.15;1.30;;;22.00;45.00;;;;;;4914239;29;20044;-84
2022/01/10 11:31:02;;;;;;;3.60;1.13;;;20.90;44.40;;;;;;4913431;29;20048;-84
2022/01/10 11:33:32;;;;;;;6.30;1.40;;;22.10;45.00;;;;;;4914521;29;20044;-83
2022/01/10 11:35:58;;;;;;;6.05;1.40;;;22.10;45.00;;;;;;4907834;29;20055;-83
2022/01/10 11:38:25;;;;;;;3.70;1.10;;;22.10;45.00;;;;;;4909281;29;20836;-84
2022/01/10 11:41:02;;;;;;;5.82;1.15;;;22.10;45.00;;;;;;4913691;29;20056;-84
2022/01/10 11:43:42;;;;;;;3.20;1.20;;;22.20;45.00;;;;;;4915038;29;20456;-84
2022/01/10 11:46:17;;;;;;;4.93;1.05;;;22.20;45.00;;;;;;4908894;29;20052;-83
2022/01/10 11:48:50;;;;;;;3.08;1.00;;;22.20;45.00;;;;;;4911075;29;20048;-83
2022/01/10 11:51:52;;;;;;;3.97;0.90;;;22.20;44.90;;;;;;4907947;29;20055;-84
2022/01/10 11:54:38;;;;;;;2.78;0.80;;;22.20;44.90;;;;;;4912306;29;20098;-84
2022/01/10 11:57:05;;;;;;;3.53;1.00;;;22.20;44.90;;;;;;4914063;29;20126;-84
2022/01/10 11:59:37;;;;;;;2.80;1.00;;;22.20;44.90;;;;;;4912937;29;20515;-84
2022/01/10 12:02:11;;;;;;;3.17;0.90;;;22.20;44.90;;;;;;4913549;29;20092;-84
2022/01/10 12:04:40;;;;;;;3.88;0.80;;;22.20;44.90;;;;;;4753935;28;5083827;-84
2022/01/10 12:07:07;;;;;;;3.90;1.23;;;23.60;45.60;;;;;;4928704;28;20086;-84
2022/01/10 12:09:33;;;;;;;3.45;1.17;;;22.20;44.90;;;;;;4913307;29;20057;-84
2022/01/10 12:12:00;;;;;;;2.25;0.80;;;22.30;44.90;;;;;;4912132;29;20048;-84
2022/01/10 12:14:26;;;;;;;4.57;0.90;;;22.30;44.90;;;;;;4911697;29;20095;-84
2022/01/10 12:16:52;;;;;;;2.17;0.90;;;22.30;44.90;;;;;;4913001;29;20531;-84
2022/01/10 12:19:18;;;;;;;3.90;0.93;;;23.50;45.50;;;;;;4910852;29;20039;-84
2022/01/10 12:21:43;;;;;;;2.22;0.80;;;22.30;44.90;;;;;;4928401;29;20055;-84
2022/01/10 12:24:09;;;;;;;1.95;0.80;;;22.30;44.90;;;;;;4912586;29;20408;-84
2022/01/10 12:26:35;;;;;;;2.78;0.90;;;22.30;44.90;;;;;;4911983;29;20036;-84
2022/01/10 12:29:01;;;;;;;2.28;0.95;;;22.40;45.00;;;;;;4912472;29;20068;-83
2022/01/10 12:31:28;;;;;;;2.97;0.90;;;23.30;45.40;;;;;;4916083;28;20491;-83
2022/01/10 12:33:54;;;;;;;3.85;1.13;;;22.40;44.90;;;;;;4949968;28;20051;-84
2022/01/10 12:36:20;;;;;;;2.95;1.00;;;22.40;44.90;;;;;;4950984;29;20134;-83
2022/01/10 12:38:53;;;;;;;2.70;1.10;;;22.40;44.90;;;;;;4950995;28;20039;-84
2022/01/10 12:41:20;;;;;;;3.67;1.30;;;22.40;44.80;;;;;;4945143;29;20123;-84
2022/01/10 12:43:49;;;;;;;2.63;1.02;;;22.40;44.80;;;;;;4944666;29;20098;-84
2022/01/10 12:46:15;;;;;;;3.47;0.98;;;22.40;44.70;;;;;;4944954;29;20488;-87
2022/01/10 12:48:42;;;;;;;4.47;1.42;;;23.40;45.30;;;;;;4952898;28;20396;-83
2022/01/10 12:51:07;;;;;;;2.78;1.05;;;22.40;43.90;;;;;;4934583;29;20495;-84
2022/01/10 12:53:33;;;;;;;2.72;0.88;;;22.40;44.30;;;;;;4950990;29;20066;-84
2022/01/10 12:55:59;;;;;;;2.17;1.00;;;22.40;44.50;;;;;;4950202;28;20047;-84
2022/01/10 12:58:24;;;;;;;3.70;0.90;;;22.40;44.50;;;;;;4950578;28;20134;-84
2022/01/10 13:00:50;;;;;;;3.10;1.00;;;22.40;44.50;;;;;;4935178;29;20496;-84
2022/01/10 13:03:16;;;;;;;2.38;0.70;;;22.90;44.80;;;;;;4953414;28;20518;-84
2022/01/10 13:05:41;;;;;;;2.38;0.68;;;22.40;44.50;;;;;;4917469;29;20690;-88